createdAt,value
2023-04-14T00:00:52.619Z,68.50
2023-04-14T00:03:21.029Z,68.71
2023-04-14T00:05:49.044Z,68.90
2023-04-14T00:08:18.141Z,69.03
2023-04-14T00:10:46.019Z,69.26
2023-04-14T00:13:13.870Z,69.53
2023-04-14T00:15:42.033Z,69.90
2023-04-14T00:18:10.620Z,69.97
2023-04-14T00:20:38.720Z,69.81
2023-04-14T00:23:06.277Z,69.93
2023-04-14T00:25:34.077Z,70.43
2023-04-14T00:28:03.180Z,70.82
2023-04-14T00:30:31.224Z,70.97
2023-04-14T00:32:59.198Z,70.90
2023-04-14T00:35:27.271Z,70.99
2023-04-14T00:37:58.280Z,71.59
2023-04-14T00:40:26.448Z,72.15
2023-04-14T00:42:54.249Z,72.09
2023-04-14T00:45:22.196Z,72.57
2023-04-14T00:47:50.225Z,72.57
2023-04-14T00:50:19.633Z,72.79
2023-04-14T00:52:50.003Z,72.77
2023-04-14T00:55:20.902Z,73.16
2023-04-14T00:57:49.912Z,73.24
2023-04-14T01:00:19.180Z,73.20
2023-04-14T01:02:47.081Z,72.92
2023-04-14T01:05:15.430Z,72.92
2023-04-14T01:07:44.170Z,73.16
2023-04-14T01:10:12.190Z,72.90
2023-04-14T01:13:08.052Z,73.00
2023-04-14T01:15:52.774Z,72.93
2023-04-14T01:18:44.275Z,72.68
2023-04-14T01:21:19.999Z,72.68
2023-04-14T01:24:06.255Z,72.42
2023-04-14T01:26:34.576Z,72.68
2023-04-14T01:29:26.628Z,72.48
2023-04-14T01:32:11.275Z,72.35
2023-04-14T01:34:56.201Z,72.17
2023-04-14T01:37:33.877Z,72.20
2023-04-14T01:40:07.642Z,72.27
2023-04-14T01:42:38.111Z,72.32
2023-04-14T01:45:19.776Z,72.37
2023-04-14T01:47:48.709Z,72.43
2023-04-14T01:50:19.893Z,72.36
2023-04-14T01:52:52.417Z,72.31
2023-04-14T01:55:21.260Z,72.51
2023-04-14T01:57:52.369Z,72.64
2023-04-14T02:00:21.430Z,72.45
2023-04-14T02:02:51.778Z,72.54
2023-04-14T02:05:21.952Z,72.31
2023-04-14T02:07:53.287Z,72.45
2023-04-14T02:10:23.522Z,72.51
2023-04-14T02:12:54.990Z,72.47
2023-04-14T02:15:25.448Z,72.75
2023-04-14T02:17:55.657Z,72.79
2023-04-14T02:20:23.758Z,73.08
2023-04-14T02:22:51.468Z,72.54
2023-04-14T02:25:22.442Z,72.55
2023-04-14T02:27:58.235Z,72.48
2023-04-14T02:30:32.251Z,72.32
2023-04-14T02:33:10.346Z,72.45
2023-04-14T02:35:58.140Z,72.38
2023-04-14T02:38:57.911Z,72.41
2023-04-14T02:41:29.553Z,72.47
2023-04-14T02:44:21.436Z,72.38
2023-04-14T02:46:57.557Z,72.39
2023-04-14T02:49:26.718Z,72.22
2023-04-14T02:51:57.595Z,72.14
2023-04-14T02:54:25.976Z,72.08
2023-04-14T02:56:56.730Z,72.07
2023-04-14T02:59:26.909Z,72.13
2023-04-14T03:01:59.119Z,72.05
2023-04-14T03:04:29.569Z,72.06
2023-04-14T03:06:59.086Z,72.01
2023-04-14T03:09:29.601Z,72.04
2023-04-14T03:11:59.010Z,72.15
2023-04-14T03:14:28.001Z,72.19
2023-04-14T03:16:57.060Z,72.22
2023-04-14T03:19:28.036Z,72.23
2023-04-14T03:21:59.733Z,72.20
2023-04-14T03:24:31.258Z,72.17
2023-04-14T03:27:09.386Z,72.16
2023-04-14T03:29:46.012Z,72.00
2023-04-14T03:32:17.571Z,71.94
2023-04-14T03:34:49.964Z,72.08
2023-04-14T03:37:24.630Z,72.01
2023-04-14T03:39:53.960Z,72.11
2023-04-14T03:42:25.440Z,72.40
2023-04-14T03:44:55.838Z,72.15
2023-04-14T03:47:24.416Z,72.08
2023-04-14T03:49:57.186Z,72.02
2023-04-14T03:52:27.452Z,72.03
2023-04-14T03:55:01.426Z,71.92
2023-04-14T03:57:31.793Z,71.78
2023-04-14T04:00:04.679Z,71.68
2023-04-14T04:02:36.202Z,71.76
2023-04-14T04:05:06.269Z,71.82
2023-04-14T04:07:36.159Z,71.65
2023-04-14T04:10:08.441Z,72.00
2023-04-14T04:12:37.804Z,71.80
2023-04-14T04:15:08.122Z,71.84
2023-04-14T04:17:38.198Z,71.57
2023-04-14T04:20:11.704Z,71.46
2023-04-14T04:22:42.624Z,71.34
2023-04-14T04:25:11.827Z,71.23
2023-04-14T04:27:41.928Z,71.13
2023-04-14T04:30:13.449Z,71.07
2023-04-14T04:32:41.420Z,70.97
2023-04-14T04:35:12.345Z,70.91
2023-04-14T04:37:43.342Z,70.84
2023-04-14T04:40:12.276Z,70.74
2023-04-14T04:42:43.632Z,70.61
2023-04-14T04:45:13.195Z,70.57
2023-04-14T04:47:41.413Z,70.48
2023-04-14T04:50:09.697Z,70.45
2023-04-14T04:52:37.551Z,70.31
2023-04-14T04:55:06.970Z,70.25
2023-04-14T04:57:34.798Z,70.20
2023-04-14T05:00:08.469Z,70.09
2023-04-14T05:02:36.275Z,69.97
2023-04-14T05:05:04.768Z,69.40
2023-04-14T05:07:32.933Z,69.24
2023-04-14T05:10:01.239Z,68.67
2023-04-14T05:12:29.868Z,68.62
2023-04-14T05:14:57.684Z,67.15
2023-04-14T05:17:25.547Z,64.83
2023-04-14T05:19:54.484Z,63.15
2023-04-14T05:22:22.393Z,62.48
2023-04-14T05:24:51.849Z,60.68
2023-04-14T05:27:21.477Z,58.57
2023-04-14T05:29:49.714Z,57.86
2023-04-14T05:32:17.563Z,56.72
2023-04-14T05:34:47.879Z,55.85
2023-04-14T05:37:16.501Z,54.36
2023-04-14T05:39:46.139Z,54.09
2023-04-14T05:42:14.401Z,53.09
2023-04-14T05:44:46.155Z,52.58
2023-04-14T05:47:16.605Z,53.79
2023-04-14T05:49:44.312Z,53.88
2023-04-14T05:52:12.086Z,53.24
2023-04-14T05:54:43.197Z,53.05
2023-04-14T05:57:12.717Z,52.11
2023-04-14T05:59:42.879Z,51.66
2023-04-14T06:02:12.713Z,50.99
2023-04-14T06:04:42.384Z,50.83
2023-04-14T06:07:10.436Z,49.46
2023-04-14T06:09:38.675Z,47.43
2023-04-14T06:12:06.579Z,46.87
2023-04-14T06:14:34.488Z,46.42
2023-04-14T06:17:05.810Z,46.31
2023-04-14T06:19:33.957Z,47.10
2023-04-14T06:22:01.736Z,46.64
2023-04-14T06:24:29.659Z,46.34
2023-04-14T06:26:58.124Z,46.46
2023-04-14T06:29:26.653Z,45.35
2023-04-14T06:31:54.745Z,46.59
2023-04-14T06:34:23.006Z,46.55
2023-04-14T06:36:52.553Z,46.54
2023-04-14T06:39:21.547Z,46.26
2023-04-14T06:41:49.031Z,45.67
2023-04-14T06:44:16.742Z,45.77
2023-04-14T06:46:44.249Z,46.18
2023-04-14T06:49:12.024Z,45.81
2023-04-14T06:51:39.514Z,45.77
2023-04-14T06:54:07.204Z,45.98
2023-04-14T06:56:34.837Z,46.45
2023-04-14T06:59:02.536Z,46.44
2023-04-14T07:01:30.290Z,46.94
2023-04-14T07:03:57.714Z,46.69
2023-04-14T07:06:25.927Z,46.97
2023-04-14T07:08:55.442Z,47.59
2023-04-14T07:11:23.412Z,47.34
2023-04-14T07:13:51.146Z,47.55
2023-04-14T07:16:19.066Z,46.82
2023-04-14T07:18:47.004Z,46.76
2023-04-14T07:21:15.032Z,46.84
2023-04-14T07:23:42.791Z,46.49
2023-04-14T07:26:10.626Z,46.19
2023-04-14T07:28:38.585Z,46.25
2023-04-14T07:31:11.063Z,46.75
2023-04-14T07:33:39.532Z,46.33
2023-04-14T07:36:09.014Z,46.25
2023-04-14T07:38:36.927Z,45.93
2023-04-14T07:41:06.520Z,46.42
2023-04-14T07:43:35.176Z,46.31
2023-04-14T07:46:07.632Z,46.16
2023-04-14T07:48:37.211Z,46.57
2023-04-14T07:51:06.300Z,46.77
2023-04-14T07:53:34.296Z,46.85
2023-04-14T07:56:02.327Z,46.36
2023-04-14T07:58:33.210Z,46.44
2023-04-14T08:01:23.432Z,46.82
2023-04-14T08:03:51.554Z,47.16
2023-04-14T08:06:20.845Z,47.12
2023-04-14T08:08:48.325Z,46.81
2023-04-14T08:11:16.460Z,46.94
2023-04-14T08:13:44.430Z,47.04
2023-04-14T08:16:12.733Z,46.96
2023-04-14T08:18:41.419Z,47.44
2023-04-14T08:21:09.461Z,47.11
2023-04-14T08:23:37.550Z,45.98
2023-04-14T08:26:06.165Z,45.54
2023-04-14T08:28:34.281Z,43.40
2023-04-14T08:31:02.268Z,43.32
2023-04-14T08:33:30.361Z,41.18
2023-04-14T08:35:59.816Z,41.18
2023-04-14T08:38:29.238Z,39.93
2023-04-14T08:40:57.654Z,40.38
2023-04-14T08:43:25.955Z,39.52
2023-04-14T08:45:55.321Z,38.60
2023-04-14T08:48:27.985Z,38.14
2023-04-14T08:51:16.450Z,38.51
2023-04-14T08:53:46.579Z,37.99
2023-04-14T08:56:20.050Z,37.58
2023-04-14T08:58:48.406Z,38.12
2023-04-14T09:01:16.698Z,37.72
2023-04-14T09:03:45.073Z,38.20
2023-04-14T09:06:14.368Z,38.45
2023-04-14T09:08:43.252Z,37.46
2023-04-14T09:11:12.729Z,37.42
2023-04-14T09:13:42.040Z,37.77
2023-04-14T09:16:11.169Z,36.97
2023-04-14T09:18:40.438Z,36.88
2023-04-14T09:21:31.070Z,35.07
2023-04-14T09:23:41.317Z,34.75
2023-04-14T09:26:12.408Z,34.43
2023-04-14T09:28:40.650Z,33.56
2023-04-14T09:31:10.182Z,34.29
2023-04-14T09:33:49.694Z,33.10
2023-04-14T09:36:26.272Z,33.59
2023-04-14T09:38:54.384Z,34.15
2023-04-14T09:41:25.159Z,33.74
2023-04-14T09:43:53.299Z,31.58
2023-04-14T09:46:21.227Z,32.30
2023-04-14T09:48:55.861Z,32.27
2023-04-14T09:51:35.017Z,31.80
2023-04-14T09:54:06.011Z,31.06
2023-04-14T09:56:34.052Z,30.60
2023-04-14T09:59:03.288Z,29.25
2023-04-14T10:01:33.647Z,29.59
2023-04-14T10:04:03.012Z,29.40
2023-04-14T10:06:31.750Z,29.70
2023-04-14T10:09:00.150Z,29.52
2023-04-14T10:11:32.242Z,29.50
2023-04-14T10:14:09.059Z,30.25
2023-04-14T10:16:38.909Z,30.69
2023-04-14T10:19:09.299Z,30.55
2023-04-14T10:21:37.104Z,30.23
2023-04-14T10:24:07.192Z,30.14
2023-04-14T10:26:36.354Z,30.31
2023-04-14T10:29:05.280Z,31.21
2023-04-14T10:31:38.335Z,31.54
2023-04-14T10:34:12.247Z,30.60
2023-04-14T10:36:41.707Z,30.83
2023-04-14T10:39:12.146Z,30.66
2023-04-14T10:41:47.296Z,30.73
2023-04-14T10:44:34.608Z,30.56
2023-04-14T10:47:09.922Z,31.24
2023-04-14T10:49:40.611Z,31.11
2023-04-14T10:52:21.643Z,29.44
2023-04-14T10:54:57.739Z,30.34
2023-04-14T10:57:29.989Z,30.20
2023-04-14T10:59:59.951Z,29.30
2023-04-14T11:02:33.444Z,28.45
2023-04-14T11:05:10.947Z,27.86
2023-04-14T11:07:47.759Z,28.99
2023-04-14T11:10:26.300Z,27.68
2023-04-14T11:13:12.249Z,29.21
2023-04-14T11:15:53.414Z,28.63
2023-04-14T11:18:35.285Z,28.65
2023-04-14T11:21:08.726Z,28.85
2023-04-14T11:23:37.837Z,29.01
2023-04-14T11:26:10.627Z,29.08
2023-04-14T11:28:42.204Z,30.11
2023-04-14T11:31:14.510Z,30.54
2023-04-14T11:33:43.586Z,31.39
2023-04-14T11:36:13.909Z,31.62
2023-04-14T11:38:43.031Z,31.90
2023-04-14T11:41:14.327Z,31.70
2023-04-14T11:43:44.049Z,31.51
2023-04-14T11:46:12.596Z,31.96
2023-04-14T11:48:40.451Z,31.55
2023-04-14T11:51:08.220Z,31.62
2023-04-14T11:53:38.440Z,31.47
2023-04-14T11:56:11.161Z,32.05
2023-04-14T11:58:38.836Z,32.08
2023-04-14T12:01:06.591Z,32.24
2023-04-14T12:03:36.275Z,32.17
2023-04-14T12:06:05.121Z,32.28
2023-04-14T12:08:33.688Z,32.85
2023-04-14T12:11:15.253Z,33.22
2023-04-14T12:13:45.182Z,33.34
2023-04-14T12:16:14.742Z,33.20
2023-04-14T12:18:43.741Z,33.08
2023-04-14T12:21:19.116Z,33.37
2023-04-14T12:23:48.168Z,33.55
2023-04-14T12:26:17.109Z,33.65
2023-04-14T12:28:45.596Z,34.10
2023-04-14T12:31:13.524Z,34.37
2023-04-14T12:33:44.423Z,34.13
2023-04-14T12:36:13.600Z,34.06
2023-04-14T12:38:41.737Z,34.45
2023-04-14T12:41:12.014Z,34.28
2023-04-14T12:43:40.570Z,34.42
2023-04-14T12:46:08.511Z,34.65
2023-04-14T12:48:45.414Z,34.80
2023-04-14T12:51:19.013Z,35.14
2023-04-14T12:53:49.596Z,35.55
2023-04-14T12:56:26.092Z,35.64
2023-04-14T12:58:54.761Z,35.41
2023-04-14T13:01:23.141Z,35.29
2023-04-14T13:03:55.708Z,35.49
2023-04-14T13:06:24.904Z,35.68
2023-04-14T13:08:55.918Z,35.33
2023-04-14T13:11:24.850Z,35.32
2023-04-14T13:13:53.657Z,35.45
2023-04-14T13:16:21.767Z,35.23
2023-04-14T13:18:49.358Z,35.56
2023-04-14T13:21:17.669Z,35.55
2023-04-14T13:23:45.498Z,35.74
2023-04-14T13:26:13.316Z,35.72
2023-04-14T13:28:42.643Z,35.90
2023-04-14T13:31:12.478Z,35.87
2023-04-14T13:33:40.576Z,35.86
2023-04-14T13:36:08.360Z,35.90
2023-04-14T13:38:36.194Z,36.05
2023-04-14T13:41:04.291Z,36.17
2023-04-14T13:43:33.020Z,36.41
2023-04-14T13:46:01.428Z,36.50
2023-04-14T13:48:31.839Z,36.50
2023-04-14T13:50:59.636Z,36.39
2023-04-14T13:53:31.812Z,36.56
2023-04-14T13:55:59.978Z,36.69
2023-04-14T13:58:29.089Z,36.75
2023-04-14T14:00:58.930Z,36.85
2023-04-14T14:03:28.452Z,36.71
2023-04-14T14:05:56.290Z,36.83
2023-04-14T14:08:24.382Z,37.07
2023-04-14T14:10:53.208Z,37.20
2023-04-14T14:13:38.567Z,37.35
2023-04-14T14:16:08.579Z,37.60
2023-04-14T14:18:37.325Z,37.63
2023-04-14T14:21:05.280Z,37.69
2023-04-14T14:23:33.031Z,37.71
2023-04-14T14:26:00.991Z,37.81
2023-04-14T14:28:28.623Z,37.85
2023-04-14T14:30:56.419Z,38.02
2023-04-14T14:33:23.968Z,38.17
2023-04-14T14:35:51.991Z,38.38
2023-04-14T14:38:19.878Z,38.59
2023-04-14T14:40:47.678Z,38.41
2023-04-14T14:43:15.212Z,38.48
2023-04-14T14:45:43.125Z,38.57
2023-04-14T14:48:11.310Z,38.51
2023-04-14T14:50:39.039Z,38.58
2023-04-14T14:53:06.508Z,38.67
2023-04-14T14:55:35.089Z,38.74
2023-04-14T14:58:05.334Z,38.88
2023-04-14T15:00:32.755Z,38.98
2023-04-14T15:03:00.661Z,39.10
2023-04-14T15:05:28.954Z,39.27
2023-04-14T15:07:57.913Z,39.60
2023-04-14T15:10:25.486Z,39.71
2023-04-14T15:12:54.152Z,39.81
2023-04-14T15:15:21.932Z,40.14
2023-04-14T15:17:49.563Z,40.65
2023-04-14T15:20:17.679Z,41.76
2023-04-14T15:22:45.407Z,43.14
2023-04-14T15:25:13.524Z,44.11
2023-04-14T15:27:41.118Z,45.02
2023-04-14T15:30:11.467Z,46.05
2023-04-14T15:32:38.982Z,47.94
2023-04-14T15:35:07.587Z,48.93
2023-04-14T15:37:35.590Z,49.14
2023-04-14T15:40:03.584Z,49.69
2023-04-14T15:42:31.384Z,50.58
2023-04-14T15:44:59.281Z,52.55
2023-04-14T15:47:27.055Z,53.75
2023-04-14T15:50:09.563Z,55.03
2023-04-14T15:52:25.587Z,56.25
2023-04-14T15:54:54.638Z,56.86
2023-04-14T15:57:23.899Z,57.25
2023-04-14T15:59:51.621Z,58.15
2023-04-14T16:02:19.764Z,58.88
2023-04-14T16:04:47.808Z,59.67
2023-04-14T16:07:15.687Z,59.32
2023-04-14T16:09:46.943Z,60.04
2023-04-14T16:12:16.387Z,60.47
2023-04-14T16:14:44.229Z,60.37
2023-04-14T16:17:12.655Z,61.18
2023-04-14T16:19:40.523Z,61.75
2023-04-14T16:22:11.639Z,61.86
2023-04-14T16:24:42.830Z,62.54
2023-04-14T16:27:10.473Z,62.01
2023-04-14T16:29:41.580Z,62.27
2023-04-14T16:32:09.639Z,62.56
2023-04-14T16:34:37.686Z,62.49
2023-04-14T16:37:09.282Z,62.39
2023-04-14T16:39:37.287Z,62.63
2023-04-14T16:42:05.502Z,62.68
2023-04-14T16:44:35.181Z,62.81
2023-04-14T16:47:03.464Z,62.98
2023-04-14T16:49:31.305Z,64.18
2023-04-14T16:52:00.561Z,64.39
2023-04-14T16:54:28.544Z,66.27
2023-04-14T16:56:56.224Z,68.06
2023-04-14T16:59:24.171Z,67.13
2023-04-14T17:01:52.081Z,67.67
2023-04-14T17:04:20.171Z,67.34
2023-04-14T17:06:49.096Z,68.00
2023-04-14T17:09:17.254Z,67.84
2023-04-14T17:11:45.700Z,66.98
2023-04-14T17:14:13.385Z,66.89
2023-04-14T17:16:41.724Z,66.64
2023-04-14T17:19:09.536Z,66.46
2023-04-14T17:21:38.055Z,66.38
2023-04-14T17:24:05.989Z,66.90
2023-04-14T17:26:35.526Z,66.57
2023-04-14T17:29:03.802Z,66.68
2023-04-14T17:31:31.953Z,66.56
2023-04-14T17:34:00.425Z,66.60
2023-04-14T17:36:30.745Z,66.65
2023-04-14T17:38:59.393Z,66.83
2023-04-14T17:41:28.622Z,66.84
2023-04-14T17:43:56.511Z,66.73
2023-04-14T17:46:26.374Z,66.76
2023-04-14T17:48:54.629Z,66.82
2023-04-14T17:51:22.369Z,67.08
2023-04-14T17:53:51.256Z,67.28
2023-04-14T17:56:19.252Z,67.43
2023-04-14T17:58:47.925Z,67.68
2023-04-14T18:01:17.482Z,67.82
2023-04-14T18:03:45.804Z,68.07
2023-04-14T18:06:15.122Z,68.28
2023-04-14T18:08:43.038Z,68.51
2023-04-14T18:11:12.236Z,68.43
2023-04-14T18:13:40.076Z,68.69
2023-04-14T18:16:10.049Z,68.92
2023-04-14T18:18:49.032Z,69.03
2023-04-14T18:21:17.296Z,69.33
2023-04-14T18:23:45.001Z,69.51
2023-04-14T18:28:42.862Z,70.01
2023-04-14T18:31:13.683Z,70.06
2023-04-14T18:33:42.147Z,70.84
2023-04-14T18:36:09.925Z,70.66
2023-04-14T18:38:37.786Z,70.83
2023-04-14T18:41:06.315Z,70.96
2023-04-14T18:43:34.844Z,71.06
2023-04-14T18:46:05.309Z,71.09
2023-04-14T18:48:36.195Z,71.21
2023-04-14T18:51:06.128Z,72.05
2023-04-14T18:53:34.360Z,72.04
2023-04-14T18:56:02.214Z,72.00
2023-04-14T18:58:29.935Z,72.43
2023-04-14T19:00:58.140Z,72.78
2023-04-14T19:03:26.561Z,73.04
2023-04-14T19:05:54.952Z,73.21
2023-04-14T19:08:25.107Z,73.29
2023-04-14T19:10:52.610Z,73.67
2023-04-14T19:13:20.323Z,73.89
2023-04-14T19:15:50.272Z,74.01
2023-04-14T19:18:18.435Z,75.15
2023-04-14T19:20:47.144Z,75.26
2023-04-14T19:23:14.914Z,75.40
2023-04-14T19:25:42.716Z,76.53
2023-04-14T19:28:12.260Z,76.81
2023-04-14T19:30:40.896Z,76.48
2023-04-14T19:33:09.191Z,77.13
2023-04-14T19:35:37.357Z,77.49
2023-04-14T19:38:08.528Z,77.07
2023-04-14T19:40:36.677Z,76.74
2023-04-14T19:43:04.717Z,76.67
2023-04-14T19:45:32.989Z,76.58
2023-04-14T19:48:07.378Z,76.91
2023-04-14T19:50:31.908Z,77.02
2023-04-14T19:52:59.919Z,77.47
2023-04-14T19:55:27.611Z,77.48
2023-04-14T19:57:55.979Z,77.43
2023-04-14T20:00:25.002Z,77.61
2023-04-14T20:02:53.915Z,77.62
2023-04-14T20:05:22.049Z,78.46
2023-04-14T20:07:50.230Z,78.20
2023-04-14T20:10:21.568Z,78.51
2023-04-14T20:12:51.856Z,78.70
2023-04-14T20:15:19.826Z,78.82
2023-04-14T20:17:48.420Z,78.78
2023-04-14T20:20:16.540Z,78.58
2023-04-14T20:22:45.089Z,78.67
2023-04-14T20:25:12.871Z,79.00
2023-04-14T20:27:40.857Z,77.93
2023-04-14T20:30:11.235Z,76.72
2023-04-14T20:32:39.417Z,73.48
2023-04-14T20:35:07.997Z,74.30
2023-04-14T20:37:35.970Z,74.30
2023-04-14T20:40:04.750Z,74.44
2023-04-14T20:42:32.908Z,74.50
2023-04-14T20:45:01.324Z,74.75
2023-04-14T20:47:29.076Z,75.11
2023-04-14T20:49:57.506Z,75.22
2023-04-14T20:52:27.356Z,75.02
2023-04-14T20:54:55.815Z,74.95
2023-04-14T20:57:23.714Z,75.03
2023-04-14T20:59:54.489Z,75.01
2023-04-14T21:02:22.599Z,75.20
2023-04-14T21:04:50.912Z,75.92
2023-04-14T21:07:18.957Z,75.69
2023-04-14T21:09:46.914Z,75.83
2023-04-14T21:12:16.650Z,76.89
2023-04-14T21:15:42.434Z,76.86
2023-04-14T21:17:15.386Z,76.89
2023-04-14T21:19:43.460Z,77.14
2023-04-14T21:22:12.098Z,77.78
2023-04-14T21:24:41.963Z,77.44
2023-04-14T21:27:09.832Z,77.43
2023-04-14T21:29:38.060Z,77.33
2023-04-14T21:32:06.479Z,77.40
2023-04-14T21:34:35.368Z,77.09
2023-04-14T21:37:04.500Z,76.28
2023-04-14T21:39:33.384Z,75.88
2023-04-14T21:42:03.154Z,75.38
2023-04-14T21:44:33.451Z,75.13
2023-04-14T21:47:01.383Z,74.75
2023-04-14T21:49:29.244Z,74.71
2023-04-14T21:51:57.132Z,74.76
2023-04-14T21:54:25.026Z,75.40
2023-04-14T21:56:53.358Z,75.96
2023-04-14T21:59:21.555Z,76.24
2023-04-14T22:01:49.605Z,76.46
2023-04-14T22:04:28.713Z,76.43
2023-04-14T22:06:48.229Z,77.40
2023-04-14T22:09:16.104Z,76.64
2023-04-14T22:11:44.307Z,76.70
2023-04-14T22:14:13.047Z,76.88
2023-04-14T22:16:41.136Z,76.57
2023-04-14T22:19:09.967Z,76.57
2023-04-14T22:21:37.802Z,76.31
2023-04-14T22:24:06.636Z,76.22
2023-04-14T22:26:34.422Z,76.11
2023-04-14T22:29:05.165Z,75.57
2023-04-14T22:31:32.934Z,75.22
2023-04-14T22:34:00.547Z,75.21
2023-04-14T22:36:29.048Z,75.22
2023-04-14T22:38:56.520Z,75.15
2023-04-14T22:41:24.669Z,75.19
2023-04-14T22:43:52.292Z,75.15
2023-04-14T22:46:20.237Z,75.10
2023-04-14T22:48:47.949Z,75.20
2023-04-14T22:51:16.224Z,75.30
2023-04-14T22:53:43.899Z,75.44
2023-04-14T22:56:11.711Z,75.66
2023-04-14T22:58:39.618Z,75.65
2023-04-14T23:01:19.101Z,75.69
2023-04-14T23:03:37.974Z,75.54
2023-04-14T23:06:06.675Z,75.24
2023-04-14T23:08:34.487Z,74.97
2023-04-14T23:11:02.098Z,74.92
2023-04-14T23:13:29.967Z,74.80
2023-04-14T23:15:57.991Z,74.80
2023-04-14T23:18:27.317Z,74.91
2023-04-14T23:20:55.054Z,74.70
2023-04-14T23:23:22.869Z,74.57
2023-04-14T23:25:50.830Z,74.44
2023-04-14T23:28:18.441Z,74.42
2023-04-14T23:30:46.252Z,74.39
2023-04-14T23:33:14.887Z,74.42
2023-04-14T23:35:42.869Z,74.53
2023-04-14T23:38:10.672Z,74.49
2023-04-14T23:40:38.311Z,74.52
2023-04-14T23:43:06.068Z,74.70
2023-04-14T23:45:35.761Z,74.91
2023-04-14T23:48:05.494Z,75.00
2023-04-14T23:51:02.914Z,75.05
2023-04-14T23:53:03.435Z,75.36
2023-04-14T23:55:31.320Z,75.49
